createdAt,value
2023-03-06T00:01:29.905Z,100040.38
2023-03-06T00:03:57.508Z,100030.81
2023-03-06T00:06:26.536Z,100036.00
2023-03-06T00:08:56.787Z,100033.41
2023-03-06T00:11:27.476Z,100036.88
2023-03-06T00:13:55.575Z,100029.88
2023-03-06T00:16:23.450Z,100029.94
2023-03-06T00:18:51.236Z,100030.81
2023-03-06T00:21:19.035Z,100026.50
2023-03-06T00:23:49.516Z,100042.22
2023-03-06T00:26:17.203Z,100032.66
2023-03-06T00:28:44.852Z,100033.56
2023-03-06T00:31:12.456Z,100024.88
2023-03-06T00:33:39.989Z,100017.84
2023-03-06T00:36:09.374Z,100017.91
2023-03-06T00:38:37.367Z,100013.50
2023-03-06T00:41:09.712Z,100022.22
2023-03-06T00:43:37.978Z,100012.63
2023-03-06T00:46:06.322Z,100018.75
2023-03-06T00:48:34.619Z,100014.41
2023-03-06T00:51:03.999Z,100012.66
2023-03-06T00:53:31.847Z,100009.16
2023-03-06T00:56:05.564Z,100005.66
2023-03-06T00:58:33.131Z,99999.56
2023-03-06T01:01:00.987Z,99995.22
2023-03-06T01:03:28.616Z,99983.94
2023-03-06T01:05:57.362Z,99989.97
2023-03-06T01:08:24.914Z,99988.25
2023-03-06T01:10:52.448Z,99980.44
2023-03-06T01:13:21.279Z,99976.91
2023-03-06T01:15:48.962Z,99973.44
2023-03-06T01:18:16.580Z,99976.06
2023-03-06T01:20:44.031Z,99970.00
2023-03-06T01:23:11.698Z,99973.41
2023-03-06T01:25:39.225Z,99971.56
2023-03-06T01:28:06.645Z,99957.59
2023-03-06T01:30:34.251Z,99963.63
2023-03-06T01:33:01.900Z,99961.91
2023-03-06T01:35:32.014Z,99961.00
2023-03-06T01:37:59.671Z,99960.09
2023-03-06T01:40:34.313Z,99955.72
2023-03-06T01:43:26.862Z,99958.41
2023-03-06T01:46:16.342Z,99963.56
2023-03-06T01:48:44.897Z,99954.91
2023-03-06T01:51:12.663Z,99952.25
2023-03-06T01:53:41.614Z,99951.34
2023-03-06T01:56:11.376Z,99937.41
2023-03-06T01:58:40.216Z,99939.94
2023-03-06T02:01:09.973Z,99947.75
2023-03-06T02:03:39.535Z,99932.97
2023-03-06T02:06:08.120Z,99938.28
2023-03-06T02:08:35.933Z,99943.38
2023-03-06T02:11:17.646Z,99934.66
2023-03-06T02:13:46.756Z,99945.94
2023-03-06T02:16:16.467Z,99935.50
2023-03-06T02:18:47.150Z,99939.94
2023-03-06T02:21:28.645Z,99943.41
2023-03-06T02:24:29.663Z,99937.22
2023-03-06T02:26:59.249Z,99933.03
2023-03-06T02:29:29.387Z,99943.38
2023-03-06T02:32:01.464Z,99931.13
2023-03-06T02:34:29.442Z,99938.00
2023-03-06T02:37:09.129Z,99932.03
2023-03-06T02:40:00.499Z,99930.38
2023-03-06T02:42:29.046Z,99916.47
2023-03-06T02:44:59.339Z,99935.53
2023-03-06T02:47:26.931Z,99928.44
2023-03-06T02:49:55.126Z,99933.78
2023-03-06T02:52:22.551Z,99914.44
2023-03-06T02:54:50.091Z,99923.19
2023-03-06T02:57:17.953Z,99913.59
2023-03-06T02:59:46.228Z,99919.75
2023-03-06T03:02:13.987Z,99914.44
2023-03-06T03:04:41.545Z,99911.69
2023-03-06T03:07:10.870Z,99921.19
2023-03-06T03:09:38.895Z,99916.88
2023-03-06T03:12:07.419Z,99906.41
2023-03-06T03:14:35.769Z,99916.88
2023-03-06T03:17:04.138Z,99910.00
2023-03-06T03:19:31.668Z,99910.06
2023-03-06T03:21:59.412Z,99907.84
2023-03-06T03:24:27.545Z,99912.16
2023-03-06T03:26:55.904Z,99911.91
2023-03-06T03:29:25.771Z,99919.75
2023-03-06T03:31:54.298Z,99917.25
2023-03-06T03:34:28.899Z,99910.34
2023-03-06T03:36:59.589Z,99915.53
2023-03-06T03:39:28.478Z,99919.63
2023-03-06T03:42:00.127Z,99907.53
2023-03-06T03:44:31.067Z,99915.19
2023-03-06T03:47:01.230Z,99913.63
2023-03-06T03:49:28.969Z,99914.59
2023-03-06T03:51:56.970Z,99914.44
2023-03-06T03:54:26.484Z,99903.81
2023-03-06T03:56:55.028Z,99906.50
2023-03-06T03:59:29.762Z,99906.50
2023-03-06T04:02:05.890Z,99909.81
2023-03-06T04:04:39.230Z,99903.66
2023-03-06T04:07:07.350Z,99910.47
2023-03-06T04:09:34.989Z,99905.31
2023-03-06T04:12:06.535Z,99917.66
2023-03-06T04:14:36.106Z,99905.50
2023-03-06T04:17:05.454Z,99901.88
2023-03-06T04:19:33.569Z,99903.66
2023-03-06T04:22:02.457Z,99907.88
2023-03-06T04:24:32.166Z,99897.94
2023-03-06T04:27:00.131Z,99895.34
2023-03-06T04:29:37.583Z,99891.84
2023-03-06T04:32:05.405Z,99888.28
2023-03-06T04:34:33.161Z,99899.53
2023-03-06T04:37:01.473Z,99909.06
2023-03-06T04:39:34.016Z,99894.34
2023-03-06T04:42:02.791Z,99895.47
2023-03-06T04:44:33.072Z,99892.63
2023-03-06T04:47:00.760Z,99891.06
2023-03-06T04:49:28.263Z,99896.13
2023-03-06T04:52:01.014Z,99900.44
2023-03-06T04:54:28.722Z,99891.97
2023-03-06T04:56:56.308Z,99893.53
2023-03-06T04:59:23.825Z,99883.03
2023-03-06T05:01:51.477Z,99892.66
2023-03-06T05:04:18.976Z,99883.91
2023-03-06T05:06:47.574Z,99875.00
2023-03-06T05:09:15.587Z,99866.34
2023-03-06T05:11:43.192Z,99866.91
2023-03-06T05:14:10.619Z,99866.06
2023-03-06T05:16:38.188Z,99868.59
2023-03-06T05:19:05.719Z,99869.47
2023-03-06T05:21:33.183Z,99866.88
2023-03-06T05:24:00.710Z,99873.25
2023-03-06T05:26:28.197Z,99874.25
2023-03-06T05:28:55.714Z,99866.06
2023-03-06T05:31:25.055Z,99875.75
2023-03-06T05:34:01.943Z,99859.34
2023-03-06T05:36:34.673Z,99855.97
2023-03-06T05:45:30.639Z,99858.13
2023-03-06T05:47:58.341Z,99871.88
2023-03-06T05:50:32.336Z,99871.72
2023-03-06T05:53:00.304Z,99873.31
2023-03-06T05:55:27.979Z,99876.81
2023-03-06T05:57:55.577Z,99872.34
2023-03-06T06:00:25.558Z,99867.88
2023-03-06T06:02:53.489Z,99880.03
2023-03-06T06:05:21.590Z,99878.59
2023-03-06T06:07:54.259Z,99883.72
2023-03-06T06:10:53.230Z,99876.72
2023-03-06T06:13:21.526Z,99890.56
2023-03-06T06:16:53.671Z,99887.16
2023-03-06T06:25:42.960Z,99871.13
2023-03-06T06:28:17.793Z,99883.25
2023-03-06T06:40:22.958Z,99859.88
2023-03-06T06:43:16.181Z,99866.50
2023-03-06T06:46:44.654Z,99860.47
2023-03-06T06:54:03.790Z,99883.59
2023-03-06T06:56:57.277Z,99898.19
2023-03-06T06:59:54.113Z,99892.84
2023-03-06T07:02:22.985Z,99886.47
2023-03-06T07:05:04.225Z,99896.25
2023-03-06T07:07:38.193Z,99894.13
2023-03-06T07:10:08.469Z,99905.84
2023-03-06T07:12:39.375Z,99902.31
2023-03-06T07:15:08.181Z,99896.91
2023-03-06T07:17:35.813Z,99901.59
2023-03-06T07:20:04.018Z,99916.34
2023-03-06T07:22:38.717Z,99897.91
2023-03-06T07:25:16.186Z,99900.53
2023-03-06T07:27:46.992Z,99910.53
2023-03-06T07:30:21.002Z,99903.81
2023-03-06T07:32:48.482Z,99891.69
2023-03-06T07:35:20.315Z,99903.38
2023-03-06T07:37:48.362Z,99894.78
2023-03-06T07:40:16.761Z,99899.91
2023-03-06T07:42:44.146Z,99909.13
2023-03-06T07:45:14.041Z,99902.56
2023-03-06T07:47:43.174Z,99902.91
2023-03-06T07:50:11.253Z,99898.97
2023-03-06T07:52:38.683Z,99903.72
2023-03-06T07:55:06.693Z,99911.28
2023-03-06T07:57:34.211Z,99905.91
2023-03-06T08:00:01.688Z,99902.97
2023-03-06T08:02:29.086Z,99907.47
2023-03-06T08:04:57.008Z,99905.66
2023-03-06T08:07:24.418Z,99905.91
2023-03-06T08:09:52.184Z,99914.78
2023-03-06T08:12:19.633Z,99912.88
2023-03-06T08:14:47.149Z,99910.63
2023-03-06T08:17:14.649Z,99919.28
2023-03-06T08:19:42.045Z,99921.16
2023-03-06T08:22:11.199Z,99921.09
2023-03-06T08:24:38.631Z,99906.03
2023-03-06T08:27:07.117Z,99913.69
2023-03-06T08:29:35.674Z,99922.22
2023-03-06T08:32:03.319Z,99916.78
2023-03-06T08:34:30.814Z,99925.16
2023-03-06T08:36:58.250Z,99927.66
2023-03-06T08:39:25.619Z,99918.31
2023-03-06T08:41:53.023Z,99915.25
2023-03-06T08:44:20.412Z,99914.84
2023-03-06T08:46:47.859Z,99931.19
2023-03-06T08:49:15.433Z,99926.09
2023-03-06T08:51:43.106Z,99926.50
2023-03-06T08:54:12.705Z,99927.16
2023-03-06T08:56:40.531Z,99929.00
2023-03-06T08:59:09.466Z,99933.28
2023-03-06T09:01:38.219Z,99926.72
2023-03-06T09:04:09.082Z,99931.50
2023-03-06T09:06:40.108Z,99930.28
2023-03-06T09:09:08.258Z,99931.03
2023-03-06T09:11:36.061Z,99930.72
2023-03-06T09:14:05.642Z,99932.00
2023-03-06T09:16:33.423Z,99933.00
2023-03-06T09:19:01.049Z,99920.09
2023-03-06T09:21:28.766Z,99921.72
2023-03-06T09:23:56.324Z,99924.72
2023-03-06T09:26:32.771Z,99929.84
2023-03-06T09:29:07.942Z,99924.16
2023-03-06T09:31:35.506Z,99918.53
2023-03-06T09:34:03.002Z,99908.03
2023-03-06T09:36:30.489Z,99910.69
2023-03-06T09:38:57.977Z,99916.88
2023-03-06T09:41:27.529Z,99913.31
2023-03-06T09:44:05.185Z,99915.94
2023-03-06T09:46:44.681Z,99917.38
2023-03-06T09:49:30.538Z,99922.38
2023-03-06T09:51:57.803Z,99911.81
2023-03-06T09:54:46.493Z,99903.56
2023-03-06T09:57:34.078Z,99912.56
2023-03-06T10:00:11.786Z,99920.16
2023-03-06T10:02:45.337Z,99922.22
2023-03-06T10:05:26.229Z,99924.81
2023-03-06T10:08:04.114Z,99917.34
2023-03-06T10:10:46.802Z,99925.44
2023-03-06T10:13:28.519Z,99916.66
2023-03-06T10:16:04.663Z,99923.84
2023-03-06T10:18:32.335Z,99919.28
2023-03-06T10:21:18.748Z,99919.19
2023-03-06T10:23:58.599Z,99916.91
2023-03-06T10:26:32.656Z,99920.75
2023-03-06T10:29:34.102Z,99919.06
2023-03-06T10:32:13.789Z,99916.94
2023-03-06T10:34:43.350Z,99907.75
2023-03-06T10:37:31.581Z,99912.31
2023-03-06T10:40:12.526Z,99906.31
2023-03-06T10:42:40.016Z,99913.38
2023-03-06T10:45:12.106Z,99913.44
2023-03-06T10:47:40.416Z,99905.72
2023-03-06T10:50:30.705Z,99904.53
2023-03-06T10:53:07.139Z,99900.72
2023-03-06T10:55:37.942Z,99891.34
2023-03-06T10:58:32.490Z,99890.38
2023-03-06T11:01:11.868Z,99893.31
2023-03-06T11:03:39.565Z,99880.81
2023-03-06T11:06:13.780Z,99894.53
2023-03-06T11:08:44.523Z,99879.31
2023-03-06T11:11:18.548Z,99886.38
2023-03-06T11:13:59.074Z,99885.25
2023-03-06T11:16:30.708Z,99877.78
2023-03-06T11:19:17.702Z,99875.84
2023-03-06T11:22:00.176Z,99877.56
2023-03-06T11:24:37.392Z,99869.59
2023-03-06T11:27:34.576Z,99868.00
2023-03-06T11:30:46.398Z,99862.03
2023-03-06T11:33:29.483Z,99863.66
2023-03-06T11:36:14.015Z,99867.34
2023-03-06T11:39:00.020Z,99864.47
2023-03-06T11:41:54.249Z,99861.97
2023-03-06T11:44:24.404Z,99856.47
2023-03-06T11:47:13.960Z,99852.50
2023-03-06T11:50:06.067Z,99850.56
2023-03-06T11:52:54.094Z,99847.34
2023-03-06T11:55:36.270Z,99848.81
2023-03-06T11:58:12.919Z,99835.47
2023-03-06T12:01:06.304Z,99832.38
2023-03-06T12:04:19.728Z,99825.28
2023-03-06T12:07:05.596Z,99830.25
2023-03-06T12:10:23.676Z,99812.63
2023-03-06T12:16:17.104Z,99812.81
2023-03-06T12:18:57.032Z,99812.38
2023-03-06T12:21:36.436Z,99808.50
2023-03-06T12:24:31.753Z,99797.38
2023-03-06T12:27:13.282Z,99781.09
2023-03-06T12:29:59.221Z,99779.63
2023-03-06T12:32:37.043Z,99776.84
2023-03-06T12:35:22.759Z,99770.25
2023-03-06T12:38:05.518Z,99769.97
2023-03-06T12:40:48.387Z,99758.28
2023-03-06T12:43:27.668Z,99771.13
2023-03-06T12:46:02.275Z,99766.72
2023-03-06T12:48:35.272Z,99766.66
2023-03-06T12:51:06.666Z,99757.69
2023-03-06T12:53:36.036Z,99757.63
2023-03-06T12:56:23.920Z,99754.53
2023-03-06T12:59:02.772Z,99742.44
2023-03-06T13:01:46.692Z,99751.44
2023-03-06T13:04:36.084Z,99744.22
2023-03-06T13:07:23.027Z,99730.44
2023-03-06T13:10:09.005Z,99738.59
2023-03-06T13:12:50.007Z,99741.25
2023-03-06T13:16:11.509Z,99729.69
2023-03-06T13:23:31.136Z,99722.03
2023-03-06T13:25:59.897Z,99720.66
2023-03-06T13:28:48.773Z,99715.06
2023-03-06T13:31:34.289Z,99715.16
2023-03-06T13:34:36.766Z,99700.78
2023-03-06T13:37:19.980Z,99713.00
2023-03-06T13:39:59.195Z,99707.28
2023-03-06T13:42:31.160Z,99710.47
2023-03-06T13:45:08.859Z,99704.09
2023-03-06T13:48:06.550Z,99700.59
2023-03-06T13:50:36.253Z,99700.53
2023-03-06T13:53:16.069Z,99698.03
2023-03-06T13:56:17.141Z,99690.53
2023-03-06T13:59:02.555Z,99688.59
2023-03-06T14:01:42.192Z,99683.84
2023-03-06T14:04:25.124Z,99678.94
2023-03-06T14:07:05.629Z,99677.06
2023-03-06T14:09:45.482Z,99663.88
2023-03-06T14:12:26.065Z,99670.31
2023-03-06T14:14:58.233Z,99667.03
2023-03-06T14:17:32.814Z,99674.66
2023-03-06T14:20:05.826Z,99673.19
2023-03-06T14:22:33.521Z,99660.84
2023-03-06T14:25:08.017Z,99650.34
2023-03-06T14:27:45.255Z,99648.69
2023-03-06T14:30:16.511Z,99640.22
2023-03-06T14:32:44.963Z,99641.16
2023-03-06T14:35:38.577Z,99631.69
2023-03-06T18:51:53.163Z,99628.47
